Time;durP1;ratioP1;P1;durP2;ratioP2;P2;SDS_P1;SDS_P2;PMS_P1;PMS_P2;Temp;Humidity;BMP_temperature;BMP_pressure;BME280_temperature;BME280_humidity;BME280_pressure;Samples;Min_cycle;Max_cycle;Signal;HPM_P1;HPM_P2
2021/05/22 00:01:46;;;;;;;2.15;0.60;;;8.20;78.00;;;;;;5095083;28;20020;-81
2021/05/22 00:04:12;;;;;;;3.95;1.08;;;8.20;78.50;;;;;;5116514;28;20031;-80
2021/05/22 00:06:37;;;;;;;2.50;0.50;;;8.10;79.20;;;;;;5095343;28;20107;-82
2021/05/22 00:09:05;;;;;;;1.77;0.75;;;8.10;79.60;;;;;;5093196;28;20099;-82
2021/05/22 00:11:31;;;;;;;2.20;0.52;;;8.10;79.90;;;;;;5092269;28;20477;-82
2021/05/22 00:13:56;;;;;;;2.83;0.60;;;8.10;80.10;;;;;;5109439;28;20035;-83
2021/05/22 00:16:22;;;;;;;2.95;0.50;;;8.10;80.20;;;;;;5092495;28;20065;-82
2021/05/22 00:18:47;;;;;;;2.00;0.73;;;8.10;80.70;;;;;;5093855;28;20103;-81
2021/05/22 00:21:14;;;;;;;10.32;1.02;;;8.10;80.60;;;;;;5092894;28;20028;-84
2021/05/22 00:23:39;;;;;;;2.28;0.63;;;8.10;80.40;;;;;;5094022;28;20024;-83
2021/05/22 00:26:05;;;;;;;2.88;0.70;;;8.10;81.10;;;;;;5092525;28;20020;-82
2021/05/22 00:28:30;;;;;;;4.13;0.90;;;8.10;81.20;;;;;;5111569;28;20123;-84
2021/05/22 00:30:56;;;;;;;3.92;1.40;;;8.00;81.20;;;;;;5113234;28;20028;-84
2021/05/22 00:33:22;;;;;;;4.38;0.90;;;8.00;81.50;;;;;;5107797;28;20012;-84
2021/05/22 00:35:47;;;;;;;6.93;0.80;;;8.00;80.90;;;;;;5100251;28;20085;-84
2021/05/22 00:38:13;;;;;;;2.45;0.70;;;8.00;81.00;;;;;;5109610;28;20025;-85
2021/05/22 00:40:39;;;;;;;4.10;0.70;;;8.10;80.60;;;;;;5093542;28;20035;-84
2021/05/22 00:43:04;;;;;;;2.63;1.00;;;8.10;80.60;;;;;;5093351;28;20028;-80
2021/05/22 00:45:31;;;;;;;1.30;0.60;;;8.20;80.60;;;;;;5108613;28;20054;-79
2021/05/22 00:47:57;;;;;;;2.97;0.65;;;8.10;80.00;;;;;;5093236;28;20016;-79
2021/05/22 00:50:24;;;;;;;3.50;1.02;;;8.20;80.20;;;;;;5093125;28;20024;-79
2021/05/22 00:52:50;;;;;;;3.65;0.68;;;8.20;79.00;;;;;;5093114;28;20031;-79
2021/05/22 00:55:16;;;;;;;3.50;0.80;;;8.10;79.60;;;;;;5092982;28;20027;-79
2021/05/22 00:57:42;;;;;;;2.15;0.93;;;8.10;80.20;;;;;;5091808;28;20437;-79
2021/05/22 01:00:12;;;;;;;2.95;1.00;;;8.10;79.90;;;;;;5093008;28;20028;-79
2021/05/22 01:02:38;;;;;;;1.45;0.63;;;8.10;79.30;;;;;;5108626;28;20384;-79
2021/05/22 01:05:05;;;;;;;1.50;0.80;;;8.10;79.20;;;;;;5091937;28;20027;-79
2021/05/22 01:07:31;;;;;;;2.90;0.80;;;8.20;79.30;;;;;;5093060;28;20095;-79
2021/05/22 01:09:57;;;;;;;4.07;1.17;;;8.20;79.30;;;;;;5092976;28;20048;-79
2021/05/22 01:12:32;;;;;;;2.50;0.60;;;8.10;79.30;;;;;;5092972;28;20024;-79
2021/05/22 01:15:10;;;;;;;1.70;0.57;;;8.10;78.90;;;;;;5092754;28;20036;-79
2021/05/22 01:17:39;;;;;;;3.85;0.73;;;8.10;78.90;;;;;;5092739;28;20091;-79
2021/05/22 01:20:15;;;;;;;4.00;0.70;;;8.10;79.00;;;;;;5109552;28;20020;-79
2021/05/22 01:22:46;;;;;;;1.40;0.60;;;8.20;78.30;;;;;;5095799;28;20024;-79
2021/05/22 01:25:34;;;;;;;3.92;0.60;;;8.20;77.90;;;;;;5112716;28;20051;-81
2021/05/22 01:28:02;;;;;;;1.17;0.60;;;8.30;77.60;;;;;;5112732;28;20025;-80
2021/05/22 01:30:28;;;;;;;3.22;0.60;;;8.30;77.60;;;;;;5096886;28;20466;-81
2021/05/22 01:32:53;;;;;;;2.13;0.52;;;8.30;78.40;;;;;;5096851;28;20024;-81
2021/05/22 01:35:19;;;;;;;2.25;0.65;;;8.40;77.60;;;;;;5112357;28;20065;-81
2021/05/22 01:37:46;;;;;;;3.08;0.85;;;8.40;77.70;;;;;;5112676;28;20452;-81
2021/05/22 01:40:12;;;;;;;6.15;1.00;;;8.40;77.40;;;;;;5112353;28;20036;-81
2021/05/22 01:42:38;;;;;;;4.88;0.85;;;8.40;77.40;;;;;;5096872;28;20024;-84
2021/05/22 01:45:09;;;;;;;3.72;0.80;;;8.40;77.10;;;;;;5112733;28;20065;-84
2021/05/22 01:47:35;;;;;;;3.80;0.50;;;8.50;76.60;;;;;;5096850;28;20091;-84
2021/05/22 01:50:04;;;;;;;2.90;0.60;;;8.50;76.30;;;;;;5111528;28;20108;-84
2021/05/22 01:52:33;;;;;;;3.03;0.95;;;8.50;76.30;;;;;;5112300;28;20507;-83
2021/05/22 01:55:02;;;;;;;2.70;1.02;;;8.50;76.50;;;;;;5096239;28;20024;-84
2021/05/22 01:57:28;;;;;;;3.15;0.60;;;8.40;76.70;;;;;;5096307;28;20076;-84
2021/05/22 01:59:54;;;;;;;4.10;0.60;;;8.50;76.70;;;;;;5095282;28;20023;-84
2021/05/22 02:02:21;;;;;;;1.83;0.70;;;8.50;76.70;;;;;;5112227;28;20032;-84
2021/05/22 02:04:48;;;;;;;3.28;0.70;;;8.50;76.70;;;;;;5095257;28;20016;-84
2021/05/22 02:07:19;;;;;;;3.33;0.70;;;8.50;76.70;;;;;;5096544;28;20383;-84
2021/05/22 02:09:49;;;;;;;3.58;0.80;;;8.50;77.60;;;;;;5096663;28;20020;-85
2021/05/22 02:12:15;;;;;;;2.88;0.63;;;8.50;76.70;;;;;;5096458;28;20085;-84
2021/05/22 02:14:43;;;;;;;2.13;0.60;;;8.50;76.70;;;;;;5112058;28;20472;-85
2021/05/22 02:17:13;;;;;;;4.78;0.57;;;8.50;77.00;;;;;;5095162;28;20384;-84
2021/05/22 02:19:42;;;;;;;2.00;0.52;;;8.50;77.20;;;;;;5095100;28;20023;-84
2021/05/22 02:22:12;;;;;;;1.83;0.65;;;8.50;77.70;;;;;;5112061;28;20032;-82
2021/05/22 02:24:37;;;;;;;3.95;0.45;;;8.50;76.60;;;;;;5111773;28;20024;-83
2021/05/22 02:27:05;;;;;;;10.50;1.23;;;8.50;76.50;;;;;;5096004;28;20027;-84
2021/05/22 02:29:35;;;;;;;5.53;1.20;;;8.50;76.70;;;;;;5096036;28;20043;-84
2021/05/22 02:32:02;;;;;;;6.90;0.80;;;8.70;76.40;;;;;;5093674;28;20036;-84
2021/05/22 02:34:37;;;;;;;3.80;0.88;;;8.60;76.10;;;;;;5095700;28;20108;-84
2021/05/22 02:37:03;;;;;;;1.20;0.40;;;8.60;76.30;;;;;;5094762;28;20493;-84
2021/05/22 02:39:30;;;;;;;5.57;1.05;;;8.60;76.60;;;;;;5111912;28;20031;-84
2021/05/22 02:41:59;;;;;;;2.70;0.70;;;8.60;76.60;;;;;;5094700;28;20031;-85
2021/05/22 02:44:27;;;;;;;3.10;0.82;;;8.60;76.90;;;;;;5095664;28;20552;-83
2021/05/22 02:46:54;;;;;;;1.77;0.40;;;8.60;77.30;;;;;;5095619;28;20028;-83
2021/05/22 02:49:27;;;;;;;2.67;0.80;;;8.50;78.40;;;;;;5110887;28;20043;-82
2021/05/22 02:51:56;;;;;;;1.45;0.45;;;8.40;79.00;;;;;;5111265;28;20036;-81
2021/05/22 02:54:25;;;;;;;3.90;1.05;;;8.40;79.80;;;;;;5111029;28;20020;-81
2021/05/22 02:56:52;;;;;;;4.00;0.82;;;8.40;81.10;;;;;;5095382;28;20043;-82
2021/05/22 02:59:18;;;;;;;3.17;0.85;;;8.30;80.80;;;;;;5093996;28;20468;-84
2021/05/22 03:01:44;;;;;;;1.63;0.50;;;8.30;81.10;;;;;;5095363;28;20034;-83
2021/05/22 03:04:10;;;;;;;2.53;0.70;;;8.20;82.30;;;;;;5095419;28;20028;-83
2021/05/22 03:06:36;;;;;;;4.32;0.65;;;8.20;83.30;;;;;;5095260;28;20020;-81
2021/05/22 03:09:03;;;;;;;7.63;0.98;;;8.10;82.40;;;;;;5095536;28;20453;-83
2021/05/22 03:11:28;;;;;;;2.88;0.88;;;8.20;82.00;;;;;;5095373;28;20051;-83
2021/05/22 03:13:54;;;;;;;5.32;0.73;;;8.20;81.70;;;;;;5096422;28;20024;-83
2021/05/22 03:16:20;;;;;;;6.97;1.00;;;8.20;81.60;;;;;;5095388;28;20039;-81
2021/05/22 03:18:45;;;;;;;10.82;1.33;;;8.20;81.80;;;;;;5095229;28;20027;-80
2021/05/22 03:21:11;;;;;;;4.95;0.90;;;8.20;82.40;;;;;;5095085;28;20372;-83
2021/05/22 03:23:38;;;;;;;4.97;1.00;;;8.20;82.20;;;;;;5111059;28;20024;-82
2021/05/22 03:26:04;;;;;;;5.10;0.93;;;8.10;81.70;;;;;;5111239;28;20165;-80
2021/05/22 03:28:30;;;;;;;6.25;1.00;;;8.20;80.80;;;;;;5110977;28;20492;-83
2021/05/22 03:30:56;;;;;;;7.68;1.52;;;8.20;81.10;;;;;;5094565;28;20028;-82
2021/05/22 03:33:21;;;;;;;4.88;0.70;;;8.30;80.30;;;;;;5110257;28;20119;-81
2021/05/22 03:35:47;;;;;;;5.97;1.30;;;8.30;80.70;;;;;;5094419;28;20123;-83
2021/05/22 03:38:13;;;;;;;6.80;1.25;;;8.30;80.70;;;;;;5093391;28;20020;-84
2021/05/22 03:40:38;;;;;;;9.90;1.20;;;8.30;80.20;;;;;;5110261;28;20035;-84
2021/05/22 03:43:04;;;;;;;7.38;1.17;;;8.40;80.10;;;;;;5094465;28;20024;-84
2021/05/22 03:45:31;;;;;;;6.93;1.48;;;8.40;80.40;;;;;;5109874;28;20431;-84
2021/05/22 03:47:57;;;;;;;7.50;1.10;;;8.40;80.40;;;;;;5094383;28;20024;-83
2021/05/22 03:50:22;;;;;;;5.45;1.13;;;8.40;79.20;;;;;;5094261;28;20028;-83
2021/05/22 03:52:48;;;;;;;5.78;1.02;;;8.50;79.10;;;;;;5110016;28;20024;-84
2021/05/22 03:55:14;;;;;;;8.30;1.50;;;8.50;78.90;;;;;;5092915;28;20114;-84
2021/05/22 03:57:40;;;;;;;12.43;2.20;;;8.50;78.60;;;;;;5092940;28;20488;-84
2021/05/22 04:00:07;;;;;;;10.13;1.52;;;8.50;79.20;;;;;;5109984;28;20114;-83
2021/05/22 04:02:33;;;;;;;5.75;1.02;;;8.50;78.90;;;;;;5109755;28;20174;-84
2021/05/22 04:04:58;;;;;;;12.70;1.30;;;8.50;78.70;;;;;;5109875;28;20467;-84
2021/05/22 04:07:24;;;;;;;7.65;0.80;;;8.50;78.00;;;;;;5109891;28;20020;-85
2021/05/22 04:09:50;;;;;;;4.85;0.98;;;8.50;78.10;;;;;;5110192;28;20051;-85
2021/05/22 04:12:15;;;;;;;5.43;0.82;;;8.60;78.40;;;;;;5110011;28;20027;-85
2021/05/22 04:14:41;;;;;;;5.70;1.23;;;8.50;78.90;;;;;;5110127;28;20144;-85
2021/05/22 04:17:06;;;;;;;10.30;1.35;;;8.50;78.90;;;;;;5093113;28;20031;-85
2021/05/22 04:19:32;;;;;;;4.50;1.23;;;8.50;78.70;;;;;;5092897;28;20484;-85
2021/05/22 04:21:57;;;;;;;6.35;1.48;;;8.50;79.80;;;;;;5110198;28;20032;-86
2021/05/22 04:24:23;;;;;;;6.63;1.35;;;8.50;78.80;;;;;;5110057;28;20016;-85
2021/05/22 04:26:49;;;;;;;4.47;1.23;;;8.50;78.60;;;;;;5109881;28;20022;-85
2021/05/22 04:29:14;;;;;;;3.15;1.00;;;8.40;79.00;;;;;;5109817;28;20032;-85
2021/05/22 04:31:40;;;;;;;4.93;1.10;;;8.40;79.20;;;;;;5109834;28;20020;-85
2021/05/22 04:34:05;;;;;;;4.57;1.10;;;8.40;79.30;;;;;;5109666;28;20468;-85
2021/05/22 04:36:31;;;;;;;5.30;1.15;;;8.40;78.70;;;;;;5092672;28;20127;-85
2021/05/22 04:38:56;;;;;;;7.13;0.90;;;8.50;78.40;;;;;;5109546;28;20024;-85
2021/05/22 04:41:22;;;;;;;5.85;1.23;;;8.40;78.20;;;;;;5109936;28;20051;-84
2021/05/22 04:43:48;;;;;;;8.57;1.88;;;8.50;78.10;;;;;;5109409;28;20027;-84
2021/05/22 04:46:13;;;;;;;4.50;1.23;;;8.50;77.40;;;;;;5093541;28;20032;-85
2021/05/22 04:48:39;;;;;;;14.48;1.77;;;8.50;75.90;;;;;;5093600;28;20028;-81
2021/05/22 04:51:05;;;;;;;11.02;1.67;;;8.70;74.90;;;;;;5091865;28;20051;-81
2021/05/22 04:53:33;;;;;;;8.40;1.85;;;8.70;74.60;;;;;;5093098;28;20013;-81
2021/05/22 04:55:58;;;;;;;5.28;1.23;;;8.80;74.50;;;;;;5091300;28;20046;-81
2021/05/22 04:58:24;;;;;;;11.80;1.58;;;8.80;73.70;;;;;;5108734;28;20024;-81
2021/05/22 05:00:50;;;;;;;9.07;1.70;;;8.80;74.30;;;;;;5093139;28;20031;-81
2021/05/22 05:03:15;;;;;;;5.45;1.20;;;8.80;74.10;;;;;;5092957;28;20056;-81
2021/05/22 05:05:41;;;;;;;9.27;1.52;;;8.70;74.50;;;;;;5108726;28;20136;-81
2021/05/22 05:08:07;;;;;;;7.97;1.50;;;8.70;74.80;;;;;;5108763;28;20028;-81
2021/05/22 05:10:32;;;;;;;6.47;1.30;;;8.70;73.90;;;;;;5092981;28;20043;-81
2021/05/22 05:12:58;;;;;;;5.72;1.33;;;8.80;73.30;;;;;;5108689;28;20032;-82
2021/05/22 05:15:29;;;;;;;8.00;1.27;;;8.80;72.60;;;;;;5092687;28;20081;-82
2021/05/22 05:17:54;;;;;;;10.60;2.08;;;8.90;72.80;;;;;;5108426;28;20027;-82
2021/05/22 05:20:20;;;;;;;12.13;1.10;;;8.90;72.50;;;;;;5108748;28;20032;-83
2021/05/22 05:22:50;;;;;;;7.03;1.27;;;8.90;71.60;;;;;;5108405;28;20016;-83
2021/05/22 05:25:16;;;;;;;7.07;1.40;;;8.90;71.70;;;;;;5108618;28;20545;-83
2021/05/22 05:27:41;;;;;;;6.13;1.23;;;8.90;71.70;;;;;;5093595;28;20105;-83
2021/05/22 05:30:08;;;;;;;7.20;1.58;;;8.90;72.30;;;;;;5092851;28;20024;-83
2021/05/22 05:32:33;;;;;;;8.60;1.30;;;8.90;71.60;;;;;;5108672;28;20523;-84
2021/05/22 05:34:59;;;;;;;9.98;1.30;;;8.90;71.80;;;;;;5091659;28;20032;-84
2021/05/22 05:37:24;;;;;;;8.75;1.60;;;9.00;71.70;;;;;;5108689;28;20039;-83
2021/05/22 05:39:50;;;;;;;13.70;1.35;;;9.00;71.00;;;;;;5109620;28;20008;-83
2021/05/22 05:42:15;;;;;;;10.38;1.20;;;8.90;70.80;;;;;;5108650;28;20050;-82
2021/05/22 05:44:41;;;;;;;6.65;1.75;;;9.00;71.00;;;;;;5108183;28;20044;-82
2021/05/22 05:47:06;;;;;;;10.30;1.40;;;9.10;70.10;;;;;;5092480;28;20020;-82
2021/05/22 05:49:32;;;;;;;13.23;1.50;;;9.20;70.60;;;;;;5108149;28;20024;-82
2021/05/22 05:51:58;;;;;;;3.30;1.10;;;9.30;70.20;;;;;;5092471;28;20026;-83
2021/05/22 05:54:24;;;;;;;10.18;1.70;;;9.40;69.50;;;;;;5091262;28;20028;-82
2021/05/22 05:56:50;;;;;;;6.57;1.50;;;9.50;68.30;;;;;;5090819;28;20111;-83
2021/05/22 05:59:16;;;;;;;10.32;2.55;;;9.40;67.80;;;;;;5107951;28;20529;-82
2021/05/22 06:01:41;;;;;;;9.02;1.88;;;9.50;68.00;;;;;;5092329;28;20059;-84
2021/05/22 06:04:07;;;;;;;10.18;1.20;;;9.60;68.10;;;;;;5090854;28;20069;-83
2021/05/22 06:06:33;;;;;;;9.10;1.88;;;9.60;68.00;;;;;;5108061;28;20024;-83
2021/05/22 06:08:59;;;;;;;8.95;1.48;;;9.60;67.20;;;;;;5111497;28;20031;-83
2021/05/22 06:11:26;;;;;;;12.90;1.92;;;9.60;67.00;;;;;;5111588;28;20036;-84
2021/05/22 06:13:51;;;;;;;6.68;1.10;;;9.50;67.30;;;;;;5111479;28;20030;-83
2021/05/22 06:16:35;;;;;;;8.98;1.13;;;9.60;67.20;;;;;;5111324;28;20032;-82
2021/05/22 06:19:01;;;;;;;7.55;0.90;;;9.60;67.00;;;;;;5111383;28;20107;-82
2021/05/22 06:21:27;;;;;;;12.15;2.13;;;9.80;66.90;;;;;;5111098;28;20156;-80
2021/05/22 06:23:53;;;;;;;9.45;1.52;;;9.90;66.90;;;;;;5111509;28;20020;-82
2021/05/22 06:26:18;;;;;;;8.23;1.23;;;10.00;66.40;;;;;;5095292;28;20031;-81
2021/05/22 06:28:44;;;;;;;7.22;1.10;;;10.10;65.80;;;;;;5094231;28;20024;-82
2021/05/22 06:31:10;;;;;;;7.28;1.30;;;10.10;65.50;;;;;;5111114;28;20020;-81
2021/05/22 06:33:36;;;;;;;7.55;1.38;;;10.10;66.00;;;;;;5110734;28;20043;-83
2021/05/22 06:36:02;;;;;;;11.57;1.83;;;10.20;65.80;;;;;;5095311;28;20148;-83
2021/05/22 06:38:28;;;;;;;9.40;1.38;;;10.20;65.70;;;;;;5094024;28;20028;-83
2021/05/22 06:40:54;;;;;;;13.02;1.45;;;10.20;66.00;;;;;;5095352;28;20495;-81
2021/05/22 06:43:20;;;;;;;6.18;1.23;;;10.20;66.30;;;;;;5111176;28;20020;-83
2021/05/22 06:45:56;;;;;;;6.18;1.35;;;10.40;65.30;;;;;;5095111;28;20080;-83
2021/05/22 06:48:22;;;;;;;6.75;1.30;;;10.40;64.80;;;;;;5110934;28;20119;-84
2021/05/22 06:50:48;;;;;;;6.28;1.17;;;10.50;64.40;;;;;;5110756;28;20112;-82
2021/05/22 06:53:13;;;;;;;15.63;1.70;;;10.70;63.50;;;;;;5110859;28;20362;-83
2021/05/22 06:55:39;;;;;;;5.30;1.20;;;10.70;61.70;;;;;;5110630;28;20043;-83
2021/05/22 06:58:06;;;;;;;6.00;1.42;;;10.60;60.50;;;;;;5111016;28;20024;-84
2021/05/22 07:00:31;;;;;;;7.93;1.50;;;10.50;61.10;;;;;;5094956;28;20028;-85
2021/05/22 07:02:57;;;;;;;6.80;1.33;;;10.40;61.20;;;;;;5110784;28;20039;-83
2021/05/22 07:05:23;;;;;;;5.55;1.10;;;10.50;61.60;;;;;;5095170;28;20016;-82
2021/05/22 07:07:49;;;;;;;6.25;1.25;;;10.50;61.80;;;;;;5095114;28;20098;-79
2021/05/22 07:10:15;;;;;;;6.35;0.93;;;10.60;60.80;;;;;;5109968;28;20081;-81
2021/05/22 07:12:41;;;;;;;7.38;1.33;;;10.70;60.50;;;;;;5094192;28;20045;-83
2021/05/22 07:15:11;;;;;;;6.88;1.20;;;10.80;60.30;;;;;;5094215;28;20032;-81
2021/05/22 07:17:36;;;;;;;3.10;1.25;;;10.60;58.80;;;;;;5109616;28;20485;-81
2021/05/22 07:20:03;;;;;;;8.32;0.98;;;10.50;58.60;;;;;;5110739;28;20028;-82
2021/05/22 07:22:29;;;;;;;11.88;1.52;;;10.50;58.90;;;;;;5094755;28;20373;-79
2021/05/22 07:24:55;;;;;;;5.90;1.33;;;10.50;60.10;;;;;;5093658;28;20036;-74
2021/05/22 07:27:21;;;;;;;5.40;0.90;;;10.60;59.60;;;;;;5093434;28;20020;-74
2021/05/22 07:29:47;;;;;;;5.45;1.10;;;10.60;59.60;;;;;;5093906;28;20051;-74
2021/05/22 07:32:13;;;;;;;9.82;1.05;;;10.70;59.60;;;;;;5093752;28;20025;-74
2021/05/22 07:34:39;;;;;;;3.45;0.82;;;10.70;58.80;;;;;;5093633;28;20084;-73
2021/05/22 07:37:05;;;;;;;9.18;1.30;;;10.60;58.40;;;;;;5094140;28;20031;-73
2021/05/22 07:39:31;;;;;;;8.82;1.20;;;10.60;58.80;;;;;;5093900;28;20103;-74
2021/05/22 07:41:57;;;;;;;7.53;1.10;;;10.70;59.10;;;;;;5093328;28;20096;-73
2021/05/22 07:44:22;;;;;;;3.55;0.88;;;10.80;58.50;;;;;;5092943;28;20040;-75
2021/05/22 07:46:48;;;;;;;11.05;1.10;;;11.10;58.00;;;;;;5093920;28;20027;-73
2021/05/22 07:49:13;;;;;;;3.95;0.90;;;11.10;57.90;;;;;;5093855;28;20032;-76
2021/05/22 07:51:40;;;;;;;7.70;1.52;;;11.10;56.00;;;;;;5093793;28;20031;-75
2021/05/22 07:54:06;;;;;;;5.40;1.00;;;11.00;54.00;;;;;;5093507;28;20111;-73
2021/05/22 07:56:32;;;;;;;6.80;1.20;;;11.10;55.40;;;;;;5093628;28;20032;-75
2021/05/22 07:58:58;;;;;;;4.10;1.00;;;11.20;54.70;;;;;;5092326;28;20026;-76
2021/05/22 08:01:24;;;;;;;5.55;1.10;;;11.20;55.00;;;;;;5093735;28;20032;-75
2021/05/22 08:03:49;;;;;;;9.50;1.30;;;11.30;55.30;;;;;;5093709;28;20058;-75
2021/05/22 08:06:15;;;;;;;11.90;1.42;;;11.40;53.70;;;;;;5093546;28;20035;-74
2021/05/22 08:08:43;;;;;;;6.05;1.50;;;11.40;53.40;;;;;;5093273;28;20045;-73
2021/05/22 08:11:09;;;;;;;8.18;1.38;;;11.50;53.90;;;;;;5108575;28;20035;-76
2021/05/22 08:13:35;;;;;;;7.45;0.90;;;11.50;53.50;;;;;;5093268;28;20024;-74
2021/05/22 08:16:00;;;;;;;6.68;1.15;;;11.50;53.00;;;;;;5093363;28;20032;-74
2021/05/22 08:18:26;;;;;;;6.65;1.08;;;11.60;53.60;;;;;;5092931;28;20019;-73
2021/05/22 08:20:53;;;;;;;6.47;1.25;;;11.70;53.90;;;;;;5093297;28;20043;-74
2021/05/22 08:23:19;;;;;;;5.00;1.00;;;11.90;54.60;;;;;;5092910;28;20095;-73
2021/05/22 08:25:45;;;;;;;9.07;1.10;;;12.00;54.40;;;;;;5093068;28;20028;-72
2021/05/22 08:28:12;;;;;;;7.72;1.17;;;12.30;54.10;;;;;;5092402;28;20032;-73
2021/05/22 08:30:37;;;;;;;4.15;0.57;;;12.40;53.70;;;;;;5091530;28;20024;-73
2021/05/22 08:33:03;;;;;;;7.53;1.25;;;12.50;51.10;;;;;;5093137;28;20020;-73
2021/05/22 08:35:30;;;;;;;3.25;0.70;;;12.30;50.80;;;;;;5097670;28;20035;-74
2021/05/22 08:37:56;;;;;;;3.90;0.88;;;12.20;51.40;;;;;;5108716;28;20562;-75
2021/05/22 08:40:26;;;;;;;5.55;0.70;;;12.10;51.80;;;;;;5092719;28;20384;-75
2021/05/22 08:42:52;;;;;;;5.57;1.02;;;12.20;51.70;;;;;;5092615;28;20349;-76
2021/05/22 08:45:20;;;;;;;5.60;1.42;;;12.30;51.30;;;;;;5092339;28;20055;-76
2021/05/22 08:47:48;;;;;;;6.72;1.20;;;12.40;51.50;;;;;;5092814;28;20020;-76
2021/05/22 08:50:15;;;;;;;5.22;1.45;;;12.60;52.10;;;;;;5092757;28;20021;-76
2021/05/22 08:52:41;;;;;;;5.10;0.95;;;12.80;51.00;;;;;;5091681;28;20043;-76
2021/05/22 08:55:07;;;;;;;6.63;1.25;;;12.80;50.70;;;;;;5092546;28;20028;-75
2021/05/22 08:57:33;;;;;;;6.85;1.45;;;12.60;51.10;;;;;;5092996;28;20034;-74
2021/05/22 08:59:59;;;;;;;5.82;1.00;;;12.40;51.70;;;;;;5091484;28;20481;-74
2021/05/22 09:02:26;;;;;;;4.68;1.10;;;12.20;52.70;;;;;;5092713;28;20088;-74
2021/05/22 09:05:21;;;;;;;5.32;0.98;;;12.30;52.40;;;;;;5092514;28;20104;-74
2021/05/22 09:07:57;;;;;;;9.35;2.90;;;12.40;51.90;;;;;;5091875;28;20111;-74
2021/05/22 09:10:28;;;;;;;3.85;0.73;;;12.50;51.90;;;;;;5092462;28;20028;-75
2021/05/22 09:12:59;;;;;;;2.95;0.77;;;12.60;51.10;;;;;;5092945;28;20024;-74
2021/05/22 09:15:27;;;;;;;5.45;1.17;;;12.60;50.90;;;;;;5092625;28;20546;-74
2021/05/22 09:17:58;;;;;;;4.35;1.25;;;12.60;51.90;;;;;;5092634;28;20028;-74
2021/05/22 09:20:25;;;;;;;5.90;1.00;;;12.40;51.10;;;;;;5092729;28;20078;-74
2021/05/22 09:23:02;;;;;;;4.13;0.70;;;12.50;51.30;;;;;;5092472;28;20020;-73
2021/05/22 09:25:29;;;;;;;6.20;0.98;;;12.60;50.80;;;;;;5092168;28;20063;-73
2021/05/22 09:27:56;;;;;;;5.47;1.00;;;12.70;51.00;;;;;;5092358;28;20025;-73
2021/05/22 09:30:23;;;;;;;5.10;0.80;;;12.80;50.40;;;;;;5092137;28;20095;-73
2021/05/22 09:32:50;;;;;;;7.80;1.20;;;12.80;49.60;;;;;;5092015;28;20066;-73
2021/05/22 09:35:19;;;;;;;4.38;1.27;;;12.80;49.70;;;;;;5092275;28;20040;-73
2021/05/22 09:37:50;;;;;;;5.10;1.05;;;12.80;49.50;;;;;;5091929;28;20107;-73
2021/05/22 09:40:20;;;;;;;4.93;1.02;;;12.70;49.60;;;;;;5092204;28;20024;-74
2021/05/22 09:42:46;;;;;;;4.90;1.55;;;12.80;49.80;;;;;;5096173;28;20161;-72
2021/05/22 09:45:24;;;;;;;4.43;0.95;;;12.70;48.50;;;;;;5095890;28;20044;-73
2021/05/22 09:47:50;;;;;;;5.47;1.80;;;12.80;48.80;;;;;;5096461;28;20567;-73
2021/05/22 09:50:53;;;;;;;6.65;1.00;;;13.10;48.80;;;;;;5096060;28;20055;-75
2021/05/22 09:53:26;;;;;;;8.90;1.15;;;13.20;47.20;;;;;;5094553;28;20019;-75
2021/05/22 09:56:10;;;;;;;8.63;1.08;;;13.50;47.30;;;;;;5095825;28;20036;-75
2021/05/22 09:58:38;;;;;;;4.85;1.05;;;13.50;46.70;;;;;;5095928;28;20031;-75
2021/05/22 10:01:04;;;;;;;9.25;0.70;;;13.50;46.30;;;;;;5096165;28;20024;-75
2021/05/22 10:03:30;;;;;;;3.42;0.90;;;13.60;46.30;;;;;;5095762;28;20027;-75
2021/05/22 10:05:55;;;;;;;4.05;1.02;;;13.80;45.70;;;;;;5095674;28;20024;-75
2021/05/22 10:08:21;;;;;;;4.47;0.90;;;14.10;44.60;;;;;;5095686;28;20032;-76
2021/05/22 10:10:49;;;;;;;2.97;0.80;;;14.10;44.60;;;;;;5095586;28;20028;-76
2021/05/22 10:13:18;;;;;;;5.78;1.13;;;14.00;44.60;;;;;;5095571;28;20031;-74
2021/05/22 10:15:44;;;;;;;6.75;1.27;;;14.10;44.60;;;;;;5095455;28;20036;-75
2021/05/22 10:18:12;;;;;;;4.63;0.80;;;14.20;43.50;;;;;;5095416;28;20055;-74
2021/05/22 10:20:38;;;;;;;2.05;0.55;;;14.20;43.00;;;;;;5095433;28;20345;-74
2021/05/22 10:23:03;;;;;;;6.45;0.95;;;14.50;43.50;;;;;;5095540;28;20024;-75
2021/05/22 10:25:29;;;;;;;5.65;1.17;;;14.80;43.40;;;;;;5095285;28;20047;-76
2021/05/22 10:27:55;;;;;;;7.53;0.77;;;15.00;41.70;;;;;;5095377;28;20032;-76
2021/05/22 10:30:21;;;;;;;3.88;0.90;;;14.90;40.60;;;;;;5095424;28;20047;-76
2021/05/22 10:32:48;;;;;;;4.43;0.60;;;14.90;41.00;;;;;;5095222;28;20032;-76
2021/05/22 10:35:23;;;;;;;2.15;0.80;;;15.00;40.60;;;;;;5094899;28;20028;-76
2021/05/22 10:37:49;;;;;;;;;;;15.20;40.30;;;;;;5095587;28;20027;-75
2021/05/22 10:40:21;;;;;;;5.50;0.90;;;15.20;40.80;;;;;;5095413;28;19908;-76
2021/05/22 10:42:49;;;;;;;4.50;0.85;;;15.40;41.00;;;;;;5095305;28;20103;-76
2021/05/22 10:45:29;;;;;;;6.68;1.50;;;15.30;38.00;;;;;;5095742;28;20434;-76
2021/05/22 10:47:55;;;;;;;6.63;0.60;;;15.10;37.60;;;;;;5095254;28;20080;-73
2021/05/22 10:50:51;;;;;;;4.13;0.80;;;14.90;36.90;;;;;;5094974;28;20120;-73
2021/05/22 10:53:32;;;;;;;2.20;0.60;;;14.70;36.10;;;;;;5084348;28;20028;-73
2021/05/22 10:56:15;;;;;;;2.70;0.45;;;14.50;36.30;;;;;;5094741;28;20074;-73
2021/05/22 10:58:59;;;;;;;3.95;0.93;;;14.60;36.60;;;;;;5094772;28;20111;-74
2021/05/22 11:01:40;;;;;;;4.18;0.65;;;14.80;36.80;;;;;;5095107;28;20020;-73
2021/05/22 11:04:10;;;;;;;2.10;0.60;;;14.80;36.60;;;;;;5093320;28;20427;-75
2021/05/22 11:06:45;;;;;;;2.72;0.60;;;14.90;37.20;;;;;;5096075;28;20204;-74
2021/05/22 11:09:31;;;;;;;3.75;0.80;;;14.90;37.40;;;;;;5094705;28;20028;-73
2021/05/22 11:12:04;;;;;;;3.50;1.00;;;14.90;37.40;;;;;;5094362;28;20512;-74
2021/05/22 11:14:51;;;;;;;3.70;0.77;;;15.30;37.60;;;;;;5094955;28;20024;-74
2021/05/22 11:17:20;;;;;;;2.05;0.50;;;15.70;36.80;;;;;;5098888;28;20024;-74
2021/05/22 11:20:00;;;;;;;2.85;0.70;;;15.50;36.10;;;;;;5096356;28;20093;-74
2021/05/22 11:22:27;;;;;;;3.38;0.68;;;15.40;34.80;;;;;;5093031;28;20031;-74
2021/05/22 11:24:59;;;;;;;3.85;0.65;;;15.40;34.10;;;;;;5094333;28;20016;-73
2021/05/22 11:27:44;;;;;;;1.58;0.35;;;15.20;33.90;;;;;;5093238;28;20035;-74
2021/05/22 11:30:13;;;;;;;4.05;0.63;;;15.30;34.30;;;;;;5094147;28;20472;-74
2021/05/22 11:32:46;;;;;;;4.03;0.70;;;15.60;34.10;;;;;;5094373;28;20129;-73
2021/05/22 11:35:27;;;;;;;1.67;0.50;;;15.60;33.80;;;;;;5094184;28;20028;-73
2021/05/22 11:38:21;;;;;;;2.13;0.50;;;15.60;33.60;;;;;;5094275;28;20024;-73
2021/05/22 11:40:50;;;;;;;1.67;0.68;;;15.80;33.80;;;;;;5093964;28;20410;-73
2021/05/22 11:43:18;;;;;;;1.85;0.40;;;15.60;33.70;;;;;;5094174;28;20032;-73
2021/05/22 11:46:05;;;;;;;5.15;0.90;;;15.80;34.00;;;;;;5093593;28;20432;-73
2021/05/22 11:48:34;;;;;;;3.08;0.45;;;16.00;34.00;;;;;;5093642;28;20373;-72
2021/05/22 11:51:08;;;;;;;2.40;0.43;;;16.00;34.10;;;;;;5093684;28;20020;-73
2021/05/22 11:53:35;;;;;;;2.90;0.80;;;16.10;34.20;;;;;;5094001;28;20103;-73
2021/05/22 11:56:09;;;;;;;4.38;0.82;;;16.30;33.70;;;;;;5093613;28;20115;-73
2021/05/22 11:58:39;;;;;;;3.17;0.60;;;16.30;33.70;;;;;;5093500;28;20341;-73
2021/05/22 12:01:12;;;;;;;3.83;0.50;;;16.60;33.30;;;;;;5093536;28;20024;-73
2021/05/22 12:03:39;;;;;;;2.15;0.50;;;16.50;34.50;;;;;;5092990;28;20028;-73
2021/05/22 12:06:06;;;;;;;4.93;0.73;;;16.80;33.70;;;;;;5097411;28;20020;-74
2021/05/22 12:08:33;;;;;;;2.50;0.70;;;17.30;33.40;;;;;;5098374;28;20020;-73
2021/05/22 12:11:11;;;;;;;2.75;0.75;;;17.40;33.00;;;;;;5093410;28;20051;-72
2021/05/22 12:13:56;;;;;;;3.05;0.75;;;16.90;32.90;;;;;;5093443;28;20024;-72
2021/05/22 12:16:23;;;;;;;2.88;0.38;;;16.50;33.70;;;;;;5093346;28;20535;-72
2021/05/22 12:18:50;;;;;;;5.45;1.00;;;16.30;34.00;;;;;;5092959;28;20028;-73
2021/05/22 12:21:25;;;;;;;2.53;0.77;;;16.40;33.90;;;;;;5091896;28;20061;-74
2021/05/22 12:23:52;;;;;;;2.80;0.60;;;16.40;34.50;;;;;;5093445;28;20016;-72
2021/05/22 12:26:18;;;;;;;3.45;0.82;;;16.60;34.30;;;;;;5093015;28;20036;-72
2021/05/22 12:28:44;;;;;;;1.33;0.35;;;16.40;33.50;;;;;;5093225;28;20027;-72
2021/05/22 12:31:12;;;;;;;1.13;0.35;;;16.70;33.30;;;;;;5092949;28;20033;-73
2021/05/22 12:33:38;;;;;;;3.97;0.50;;;16.90;33.10;;;;;;5092840;28;20068;-72
2021/05/22 12:36:06;;;;;;;2.60;0.50;;;16.80;32.60;;;;;;5092929;28;20465;-73
2021/05/22 12:38:45;;;;;;;1.15;0.70;;;16.90;32.40;;;;;;5092833;28;20043;-74
2021/05/22 12:41:19;;;;;;;2.15;0.55;;;16.50;32.00;;;;;;5092661;28;20036;-73
2021/05/22 12:43:47;;;;;;;2.65;0.73;;;16.30;32.00;;;;;;5092641;28;20024;-73
2021/05/22 12:46:24;;;;;;;3.33;0.88;;;16.30;31.70;;;;;;5092889;28;20488;-73
2021/05/22 12:48:50;;;;;;;2.75;0.60;;;16.50;31.80;;;;;;5092955;28;20039;-72
2021/05/22 12:51:22;;;;;;;2.08;0.30;;;16.70;31.40;;;;;;5092833;28;20058;-72
2021/05/22 12:53:48;;;;;;;3.83;0.70;;;16.70;31.70;;;;;;5092714;28;20039;-73
2021/05/22 12:56:17;;;;;;;2.05;0.40;;;16.80;31.20;;;;;;5092811;28;20040;-75